Time;durP1;ratioP1;P1;durP2;ratioP2;P2;SDS_P1;SDS_P2;PMS_P1;PMS_P2;Temp;Humidity;BMP_temperature;BMP_pressure;BME280_temperature;BME280_humidity;BME280_pressure;Samples;Min_cycle;Max_cycle;Signal;HPM_P1;HPM_P2
2023/01/12 00:01:21;;;;;;;22.25;4.03;;;;;;;7.18;100.00;100881.88;4923940;28;20051;-72
2023/01/12 00:03:47;;;;;;;18.17;2.20;;;;;;;7.13;100.00;100878.88;4968384;28;20524;-72
2023/01/12 00:06:13;;;;;;;14.23;1.73;;;;;;;7.21;100.00;100883.38;4966307;28;20063;-72
2023/01/12 00:08:39;;;;;;;18.33;2.53;;;;;;;7.17;100.00;100882.81;4964649;28;20110;-72
2023/01/12 00:11:04;;;;;;;13.68;2.20;;;;;;;7.18;100.00;100875.94;4965587;28;20042;-73
2023/01/12 00:13:31;;;;;;;14.60;1.88;;;;;;;7.18;100.00;100879.31;4979488;28;20022;-73
2023/01/12 00:18:43;;;;;;;22.92;3.28;;;;;;;7.21;100.00;100880.78;4986818;28;20035;-72
2023/01/12 00:21:09;;;;;;;15.65;1.90;;;;;;;7.20;100.00;100874.03;4965114;28;20030;-73
2023/01/12 00:23:34;;;;;;;17.73;1.98;;;;;;;7.19;100.00;100868.03;4993683;28;20512;-72
2023/01/12 00:26:00;;;;;;;14.60;1.98;;;;;;;7.18;100.00;100868.19;4976251;28;20485;-73
2023/01/12 00:28:25;;;;;;;19.90;2.70;;;;;;;7.34;100.00;100876.22;4969080;28;20039;-73
2023/01/12 00:30:51;;;;;;;12.63;2.88;;;;;;;7.28;100.00;100876.75;4984271;28;20035;-72
2023/01/12 00:33:18;;;;;;;12.40;2.05;;;;;;;7.27;100.00;100863.97;4972253;28;20038;-73
2023/01/12 00:35:44;;;;;;;16.50;2.30;;;;;;;7.25;100.00;100858.13;4982521;28;20045;-73
2023/01/12 00:38:10;;;;;;;19.60;2.28;;;;;;;7.17;100.00;100858.81;4970153;28;20120;-73
2023/01/12 00:40:35;;;;;;;14.23;1.92;;;;;;;7.27;100.00;100851.09;4967714;28;20046;-73
2023/01/12 00:45:49;;;;;;;13.38;1.98;;;;;;;7.22;100.00;100844.56;4978470;28;20039;-73
2023/01/12 00:48:15;;;;;;;13.90;2.30;;;;;;;7.33;100.00;100861.69;4966809;28;20140;-72
2023/01/12 00:50:41;;;;;;;17.15;2.50;;;;;;;7.25;100.00;100858.13;4960502;28;20081;-72
2023/01/12 00:53:06;;;;;;;16.23;3.22;;;;;;;7.27;100.00;100846.75;4966402;28;20521;-73
2023/01/12 00:55:32;;;;;;;15.63;2.22;;;;;;;7.32;100.00;100836.03;4965405;28;20516;-72
2023/01/12 00:57:58;;;;;;;18.42;2.92;;;;;;;7.30;100.00;100835.34;4964259;28;20038;-72
2023/01/12 01:00:23;;;;;;;15.43;2.63;;;;;;;7.29;100.00;100831.97;4956515;28;20510;-72
2023/01/12 01:02:49;;;;;;;19.75;2.80;;;;;;;7.38;100.00;100838.91;4967741;28;20049;-72
2023/01/12 01:05:16;;;;;;;15.48;2.30;;;;;;;7.42;100.00;100844.59;4970488;28;20031;-72
2023/01/12 01:07:42;;;;;;;20.95;2.50;;;;;;;7.41;100.00;100841.19;4964311;28;20031;-72
2023/01/12 01:10:09;;;;;;;15.95;3.08;;;;;;;7.30;100.00;100841.31;4969325;28;20053;-72
2023/01/12 01:12:35;;;;;;;20.38;2.97;;;;;;;7.30;100.00;100840.50;4979288;28;20142;-72
2023/01/12 01:15:00;;;;;;;22.60;2.65;;;;;;;7.43;100.00;100835.91;4974211;28;20134;-71
2023/01/12 01:17:27;;;;;;;21.65;4.25;;;;;;;7.45;100.00;100840.94;4946094;28;20560;-72
2023/01/12 01:19:53;;;;;;;21.85;2.85;;;;;;;7.51;100.00;100827.50;4947467;28;20114;-72
2023/01/12 01:22:19;;;;;;;15.70;2.65;;;;;;;7.53;100.00;100830.75;4962495;28;20114;-72
2023/01/12 01:24:45;;;;;;;22.85;3.78;;;;;;;7.47;100.00;100834.69;4962557;28;25391;-72
2023/01/12 01:27:11;;;;;;;20.42;2.10;;;;;;;7.45;100.00;100835.78;4982959;28;20042;-72
2023/01/12 01:29:36;;;;;;;19.90;2.20;;;;;;;7.54;100.00;100830.63;4962805;28;20026;-72
2023/01/12 01:32:02;;;;;;;23.42;2.63;;;;;;;7.50;100.00;100812.97;4972261;28;20034;-72
2023/01/12 01:34:28;;;;;;;22.15;2.90;;;;;;;7.49;100.00;100819.88;4957700;28;20453;-72
2023/01/12 01:36:53;;;;;;;19.35;3.28;;;;;;;7.53;100.00;100817.84;4964057;28;20030;-73
2023/01/12 01:39:19;;;;;;;20.77;3.38;;;;;;;7.49;100.00;100817.28;4963341;28;20038;-72
2023/01/12 01:41:44;;;;;;;20.67;3.65;;;;;;;7.55;100.00;100811.63;4972865;28;20034;-72
2023/01/12 01:44:28;;;;;;;20.17;2.72;;;;;;;7.55;100.00;100805.63;4964252;28;20374;-72
2023/01/12 01:47:10;;;;;;;20.25;2.75;;;;;;;7.51;100.00;100792.16;4977624;28;20043;-72
2023/01/12 01:49:41;;;;;;;21.38;2.65;;;;;;;7.51;100.00;100796.53;4963943;28;20341;-72
2023/01/12 01:52:14;;;;;;;16.42;2.40;;;;;;;7.57;100.00;100808.88;4949464;28;20065;-72
2023/01/12 01:54:51;;;;;;;22.92;2.58;;;;;;;7.67;100.00;100794.22;4961990;28;20126;-72
2023/01/12 01:57:17;;;;;;;14.50;2.67;;;;;;;7.58;100.00;100789.88;4974453;28;20046;-72
2023/01/12 01:59:49;;;;;;;17.65;2.33;;;;;;;7.56;100.00;100789.19;4968591;28;20090;-72
2023/01/12 02:02:16;;;;;;;8.50;1.83;;;;;;;7.73;100.00;100785.91;4959132;28;20110;-72
2023/01/12 02:04:42;;;;;;;21.17;2.47;;;;;;;7.68;100.00;100789.88;4961292;28;20035;-73
2023/01/12 02:07:07;;;;;;;16.58;2.33;;;;;;;7.62;100.00;100777.50;4982030;28;20117;-72
2023/01/12 02:09:33;;;;;;;12.18;2.15;;;;;;;7.63;100.00;100773.97;4965237;28;20041;-72
2023/01/12 02:17:53;;;;;;;17.50;2.58;;;;;;;7.68;100.00;100771.78;4969474;28;20035;-72
2023/01/12 02:20:35;;;;;;;16.85;2.30;;;;;;;7.71;100.00;100782.66;4955643;28;20118;-73
2023/01/12 02:23:26;;;;;;;17.20;1.98;;;;;;;7.82;100.00;100761.06;4958717;28;20046;-73
2023/01/12 02:26:21;;;;;;;20.65;2.33;;;;;;;7.70;100.00;100762.94;4977497;28;20045;-72
2023/01/12 02:29:05;;;;;;;16.88;2.90;;;;;;;7.78;100.00;100764.88;4966103;28;20030;-73
2023/01/12 02:31:41;;;;;;;23.83;3.88;;;;;;;7.73;100.00;100761.88;4951653;28;20098;-72
2023/01/12 02:34:19;;;;;;;19.00;2.42;;;;;;;7.79;100.00;100746.63;4965532;28;22072;-72
2023/01/12 02:37:04;;;;;;;18.70;2.22;;;;;;;7.78;100.00;100745.03;4975152;28;20043;-73
2023/01/12 02:39:41;;;;;;;15.35;2.28;;;;;;;7.75;100.00;100744.50;4959923;28;20107;-72
2023/01/12 02:42:41;;;;;;;20.35;2.88;;;;;;;7.71;100.00;100736.19;4959250;28;20031;-73
2023/01/12 02:45:21;;;;;;;16.10;1.98;;;;;;;7.64;100.00;100737.69;4935740;28;20035;-74
2023/01/12 02:47:55;;;;;;;16.92;2.30;;;;;;;7.60;100.00;100742.31;4965565;28;20033;-73
2023/01/12 02:50:56;;;;;;;15.90;2.15;;;;;;;7.72;100.00;100708.63;4968445;28;20101;-73
2023/01/12 02:53:29;;;;;;;29.95;3.00;;;;;;;7.72;100.00;100709.44;4960936;28;20046;-72
2023/01/12 02:55:59;;;;;;;22.13;2.25;;;;;;;7.78;100.00;100708.06;4977327;28;20067;-72
2023/01/12 02:58:28;;;;;;;22.73;4.47;;;;;;;7.69;100.00;100709.72;4970077;28;20557;-72
2023/01/12 03:00:56;;;;;;;14.10;1.95;;;;;;;7.73;100.00;100710.25;4967155;28;20049;-73
2023/01/12 03:03:23;;;;;;;25.80;3.58;;;;;;;7.74;100.00;100701.53;4968062;28;20081;-73
2023/01/12 03:05:50;;;;;;;13.73;2.00;;;;;;;7.74;100.00;100707.53;4964446;28;20050;-72
2023/01/12 03:08:22;;;;;;;25.58;3.75;;;;;;;7.66;100.00;100688.53;4958138;28;20041;-73
2023/01/12 03:11:00;;;;;;;21.33;2.17;;;;;;;7.65;100.00;100699.78;4961055;28;20416;-70
2023/01/12 03:13:28;;;;;;;15.77;2.25;;;;;;;7.74;100.00;100698.97;4975512;28;20050;-72
2023/01/12 03:15:56;;;;;;;16.90;2.42;;;;;;;7.72;100.00;100675.91;4964377;28;20086;-71
2023/01/12 03:18:33;;;;;;;16.08;2.13;;;;;;;7.67;100.00;100693.56;4963819;28;20022;-72
2023/01/12 03:21:04;;;;;;;19.27;3.33;;;;;;;7.72;100.00;100683.63;4957436;28;20057;-72
2023/01/12 03:23:37;;;;;;;20.98;2.92;;;;;;;7.71;100.00;100696.69;4979566;28;20105;-73
2023/01/12 03:26:06;;;;;;;14.35;2.60;;;;;;;7.77;100.00;100690.94;4949487;28;20417;-73
2023/01/12 03:28:34;;;;;;;25.15;2.90;;;;;;;7.66;100.00;100676.44;4959461;28;20131;-73
2023/01/12 03:31:07;;;;;;;11.30;2.78;;;;;;;7.67;100.00;100666.94;4962864;28;20126;-73
2023/01/12 03:33:34;;;;;;;20.58;1.73;;;;;;;7.67;100.00;100688.41;4947213;28;20161;-73
2023/01/12 03:36:22;;;;;;;23.90;2.92;;;;;;;7.67;100.00;100680.66;4967188;28;20042;-73
2023/01/12 03:39:00;;;;;;;19.70;3.33;;;;;;;7.63;100.00;100652.66;4970515;28;20038;-73
2023/01/12 03:41:35;;;;;;;21.60;3.75;;;;;;;7.62;100.00;100663.97;4963292;28;20049;-73
2023/01/12 03:44:06;;;;;;;26.95;5.93;;;;;;;7.62;100.00;100658.81;4982445;28;20034;-72
2023/01/12 03:46:41;;;;;;;21.25;3.83;;;;;;;7.64;100.00;100654.31;4965987;28;20043;-73
2023/01/12 03:49:22;;;;;;;15.30;2.63;;;;;;;7.57;100.00;100648.88;4977915;28;20070;-72
2023/01/12 03:51:51;;;;;;;19.98;3.10;;;;;;;7.59;100.00;100649.56;4967180;28;20043;-73
2023/01/12 03:54:18;;;;;;;24.42;2.40;;;;;;;7.57;100.00;100636.81;4964357;28;20038;-72
2023/01/12 03:56:45;;;;;;;14.32;2.33;;;;;;;7.67;100.00;100629.03;4981108;28;20126;-72
2023/01/12 03:59:11;;;;;;;9.20;1.58;;;;;;;7.67;100.00;100639.38;4980794;28;20614;-72
2023/01/12 04:01:37;;;;;;;15.15;1.90;;;;;;;7.65;100.00;100636.13;4965902;28;20038;-72
2023/01/12 04:04:03;;;;;;;21.27;2.33;;;;;;;7.77;100.00;100629.00;4980699;28;20086;-72
2023/01/12 04:06:28;;;;;;;11.95;1.92;;;;;;;7.78;100.00;100625.47;4962876;28;20047;-73
2023/01/12 04:08:54;;;;;;;11.25;2.50;;;;;;;7.74;100.00;100624.09;4982576;28;20038;-72
2023/01/12 04:14:03;;;;;;;11.02;1.55;;;;;;;7.74;100.00;100619.78;4984924;28;20037;-72
2023/01/12 04:16:29;;;;;;;17.40;2.75;;;;;;;7.66;100.00;100618.84;4966591;28;20051;-73
2023/01/12 04:18:54;;;;;;;16.63;2.75;;;;;;;7.69;100.00;100610.84;4984231;28;20105;-73
2023/01/12 04:24:04;;;;;;;15.57;2.30;;;;;;;7.70;100.00;100596.97;4978057;28;20094;-73
2023/01/12 04:26:29;;;;;;;19.35;2.85;;;;;;;7.71;100.00;100601.97;4963436;28;20050;-73
2023/01/12 04:28:55;;;;;;;9.98;1.90;;;;;;;7.65;100.00;100596.56;4963230;28;20031;-73
2023/01/12 04:31:20;;;;;;;16.48;2.22;;;;;;;7.65;100.00;100592.25;4962470;28;20485;-73
2023/01/12 04:33:46;;;;;;;11.23;2.38;;;;;;;7.72;100.00;100582.97;4953341;28;20035;-73
2023/01/12 04:36:11;;;;;;;14.10;2.17;;;;;;;7.71;100.00;100575.38;4982655;28;20043;-73
2023/01/12 04:38:38;;;;;;;15.35;1.77;;;;;;;7.64;100.00;100561.41;4971084;28;20031;-73
2023/01/12 04:41:04;;;;;;;14.30;2.80;;;;;;;7.66;100.00;100555.13;4980703;28;20066;-73
2023/01/12 04:43:30;;;;;;;16.02;2.78;;;;;;;7.56;100.00;100567.28;4960594;28;20035;-73
2023/01/12 04:45:56;;;;;;;23.17;2.83;;;;;;;7.60;100.00;100553.94;4982486;28;20058;-73
2023/01/12 04:48:21;;;;;;;12.32;1.83;;;;;;;7.55;100.00;100539.84;4970413;28;20488;-73
2023/01/12 04:50:49;;;;;;;10.55;1.80;;;;;;;7.56;100.00;100542.28;4963357;28;20035;-73
2023/01/12 04:53:15;;;;;;;12.32;1.98;;;;;;;7.61;100.00;100547.03;4977364;28;20054;-73
2023/01/12 04:55:42;;;;;;;17.45;2.65;;;;;;;7.56;100.00;100523.41;4978850;28;20046;-72
2023/01/12 04:58:08;;;;;;;15.07;1.38;;;;;;;7.61;100.00;100521.22;4980045;28;20035;-73
2023/01/12 05:00:34;;;;;;;9.98;1.35;;;;;;;7.63;100.00;100518.47;4982431;28;20661;-73
2023/01/12 05:03:01;;;;;;;13.95;2.50;;;;;;;7.62;100.00;100530.56;4954342;28;20034;-72
2023/01/12 05:05:31;;;;;;;12.18;1.70;;;;;;;7.66;100.00;100525.94;4962388;28;20054;-73
2023/01/12 05:10:54;;;;;;;9.63;1.80;;;;;;;7.71;100.00;100506.50;4983829;28;20270;-72
2023/01/12 05:13:20;;;;;;;10.30;1.25;;;;;;;7.70;100.00;100499.69;4965050;28;20034;-73
2023/01/12 05:15:45;;;;;;;12.43;1.33;;;;;;;7.68;100.00;100496.44;4962006;28;20031;-71
2023/01/12 05:18:11;;;;;;;12.32;2.05;;;;;;;7.70;100.00;100480.81;4983001;28;20678;-73
2023/01/12 05:20:37;;;;;;;14.20;1.80;;;;;;;7.64;100.00;100484.78;4965794;28;20038;-71
2023/01/12 05:23:02;;;;;;;11.75;1.58;;;;;;;7.67;100.00;100475.97;4979256;28;20030;-72
2023/01/12 05:25:30;;;;;;;10.98;2.03;;;;;;;7.59;100.00;100463.75;4962253;28;20105;-73
2023/01/12 05:27:59;;;;;;;6.75;1.02;;;;;;;7.61;100.00;100461.88;4978767;28;20031;-73
2023/01/12 05:30:26;;;;;;;34.63;8.70;;;;;;;7.65;100.00;100454.63;4964491;28;20121;-72
2023/01/12 05:32:52;;;;;;;25.88;5.20;;;;;;;7.52;100.00;100462.72;4966147;28;20124;-71
2023/01/12 05:35:17;;;;;;;16.33;3.17;;;;;;;7.57;100.00;100432.13;4964406;28;20042;-73
2023/01/12 05:37:44;;;;;;;21.70;5.63;;;;;;;7.58;100.00;100457.00;4950704;28;20126;-73
2023/01/12 05:40:10;;;;;;;14.55;3.33;;;;;;;7.55;100.00;100415.97;4950884;28;20038;-73
2023/01/12 05:45:21;;;;;;;11.50;1.83;;;;;;;7.60;100.00;100462.81;4966294;28;20035;-73
2023/01/12 05:47:46;;;;;;;10.35;1.85;;;;;;;7.59;100.00;100427.63;4966745;28;20065;-71
2023/01/12 05:50:12;;;;;;;16.33;2.58;;;;;;;7.53;100.00;100423.06;4978319;28;20098;-73
2023/01/12 05:52:37;;;;;;;18.35;2.67;;;;;;;7.50;100.00;100426.75;4964536;28;20046;-73
2023/01/12 05:55:04;;;;;;;13.90;1.83;;;;;;;7.52;100.00;100418.88;4963286;28;20032;-72
2023/01/12 05:57:30;;;;;;;13.05;2.33;;;;;;;7.55;100.00;100421.97;4966017;28;20124;-72
2023/01/12 05:59:56;;;;;;;8.70;1.60;;;;;;;7.59;100.00;100425.06;4962570;28;20363;-73
2023/01/12 06:02:21;;;;;;;15.15;2.30;;;;;;;7.54;100.00;100397.13;4976706;28;20035;-72
2023/01/12 06:04:47;;;;;;;13.82;1.38;;;;;;;7.52;100.00;100401.63;4962058;28;20102;-72
2023/01/12 06:07:14;;;;;;;14.57;1.70;;;;;;;7.58;100.00;100416.50;4974649;28;20039;-73
2023/01/12 06:09:40;;;;;;;12.05;1.48;;;;;;;7.54;100.00;100416.97;4963234;28;20026;-72
2023/01/12 06:14:50;;;;;;;13.68;2.10;;;;;;;7.46;100.00;100397.03;4964081;28;20034;-73
2023/01/12 06:17:16;;;;;;;17.27;2.22;;;;;;;7.54;100.00;100397.13;4964269;28;20562;-73
2023/01/12 06:19:41;;;;;;;12.85;1.63;;;;;;;7.52;100.00;100401.63;4980542;28;20053;-73
2023/01/12 06:22:07;;;;;;;17.45;3.03;;;;;;;7.55;100.00;100403.09;4942780;28;20087;-72
2023/01/12 06:24:33;;;;;;;11.82;1.70;;;;;;;7.55;100.00;100391.00;4945409;28;20138;-73
2023/01/12 06:26:59;;;;;;;9.13;1.25;;;;;;;7.53;100.00;100395.47;4961147;28;20114;-72
2023/01/12 06:29:25;;;;;;;13.45;1.60;;;;;;;7.57;100.00;100399.41;4958036;28;20042;-73
2023/01/12 06:31:50;;;;;;;11.90;1.77;;;;;;;7.66;100.00;100392.53;4948587;28;20468;-73
2023/01/12 06:34:16;;;;;;;10.55;1.40;;;;;;;7.57;100.00;100409.75;4951994;28;20162;-73
2023/01/12 06:36:42;;;;;;;13.20;1.80;;;;;;;7.67;100.00;100394.19;4971902;28;20119;-73
2023/01/12 06:39:07;;;;;;;15.63;1.67;;;;;;;7.68;100.00;100384.66;4961774;28;20051;-73
2023/01/12 06:44:18;;;;;;;14.18;1.60;;;;;;;7.65;100.00;100390.09;4951092;28;20086;-71
2023/01/12 06:46:44;;;;;;;13.40;1.55;;;;;;;7.71;100.00;100389.53;4948837;28;20046;-71
2023/01/12 06:49:09;;;;;;;17.27;1.77;;;;;;;7.68;100.00;100406.13;4930680;29;20039;-72
2023/01/12 06:51:35;;;;;;;15.13;1.80;;;;;;;7.73;100.00;100374.72;4946865;28;20102;-73
2023/01/12 06:54:01;;;;;;;11.48;1.27;;;;;;;7.79;100.00;100389.59;4945451;28;20123;-72
2023/01/12 06:56:26;;;;;;;11.55;1.50;;;;;;;7.77;100.00;100401.84;4948273;28;20046;-72
2023/01/12 06:58:52;;;;;;;16.63;2.00;;;;;;;7.73;100.00;100387.63;4950378;28;20520;-73
2023/01/12 07:01:17;;;;;;;13.10;1.75;;;;;;;7.81;100.00;100392.84;4945344;28;20066;-73
2023/01/12 07:03:43;;;;;;;13.75;1.17;;;;;;;7.76;100.00;100395.88;4948140;28;20395;-73
2023/01/12 07:06:09;;;;;;;9.73;1.10;;;;;;;7.76;100.00;100390.72;4940908;28;20053;-72
2023/01/12 07:08:34;;;;;;;11.27;1.77;;;;;;;7.86;100.00;100395.00;4943917;28;20046;-71
2023/01/12 07:11:02;;;;;;;14.75;1.65;;;;;;;7.77;100.00;100397.50;4942812;28;20067;-73
2023/01/12 07:13:29;;;;;;;11.88;1.83;;;;;;;7.80;100.00;100402.38;4947050;28;20082;-72
2023/01/12 07:15:57;;;;;;;6.30;1.10;;;;;;;7.88;100.00;100400.81;4971491;28;20058;-73
2023/01/12 07:18:23;;;;;;;8.00;1.50;;;;;;;7.90;100.00;100388.59;4944164;28;20050;-72
2023/01/12 07:20:48;;;;;;;12.23;1.33;;;;;;;7.88;100.00;100375.81;4946646;28;20035;-73
2023/01/12 07:23:14;;;;;;;19.15;3.40;;;;;;;7.91;100.00;100379.84;4948469;28;20496;-72
2023/01/12 07:25:39;;;;;;;12.35;2.00;;;;;;;7.96;100.00;100380.22;4945937;28;20490;-73
2023/01/12 07:28:05;;;;;;;3.45;1.05;;;;;;;7.98;100.00;100370.56;4945913;28;20031;-73
2023/01/12 07:30:30;;;;;;;11.90;1.20;;;;;;;7.99;100.00;100382.53;4969626;28;20038;-72
2023/01/12 07:33:08;;;;;;;9.63;1.85;;;;;;;7.93;100.00;100399.44;4965182;28;20061;-72
2023/01/12 07:35:33;;;;;;;8.25;0.88;;;;;;;7.97;100.00;100390.41;4979653;28;20035;-72
2023/01/12 07:37:59;;;;;;;9.82;0.95;;;;;;;7.94;100.00;100390.69;4957655;28;20034;-73
2023/01/12 07:40:24;;;;;;;11.57;2.00;;;;;;;7.92;100.00;100402.16;4974273;28;20039;-72
2023/01/12 07:43:00;;;;;;;12.90;2.85;;;;;;;7.90;100.00;100379.06;4981502;28;20378;-73
2023/01/12 07:45:27;;;;;;;11.02;1.25;;;;;;;7.98;100.00;100379.13;4941024;28;20633;-73
2023/01/12 07:47:53;;;;;;;6.78;1.23;;;;;;;8.02;100.00;100384.00;4958872;28;20566;-72
2023/01/12 07:50:23;;;;;;;8.15;1.40;;;;;;;8.01;100.00;100374.63;4947216;28;20035;-73
2023/01/12 07:52:49;;;;;;;11.05;1.42;;;;;;;8.08;100.00;100389.38;4948119;28;20027;-72
2023/01/12 07:55:16;;;;;;;9.05;1.20;;;;;;;8.11;100.00;100401.19;4963492;28;20113;-72
2023/01/12 07:57:42;;;;;;;5.50;0.88;;;;;;;8.17;100.00;100388.50;4963431;28;20583;-72
2023/01/12 08:00:08;;;;;;;6.35;0.98;;;;;;;8.16;100.00;100391.22;4957488;28;20038;-73
2023/01/12 08:02:34;;;;;;;12.73;1.20;;;;;;;8.11;100.00;100398.59;4945786;28;20047;-73
2023/01/12 08:04:59;;;;;;;10.88;1.10;;;;;;;8.14;100.00;100398.31;4955647;28;20039;-71
2023/01/12 08:07:25;;;;;;;12.52;1.75;;;;;;;8.21;100.00;100396.72;4946515;28;20039;-72
2023/01/12 08:09:51;;;;;;;11.60;1.10;;;;;;;8.15;100.00;100408.47;4964649;28;20040;-73
2023/01/12 08:12:16;;;;;;;9.23;1.35;;;;;;;8.16;100.00;100411.88;4944370;28;20485;-72
2023/01/12 08:14:42;;;;;;;6.30;0.88;;;;;;;8.18;100.00;100403.00;4950544;28;20038;-73
2023/01/12 08:17:20;;;;;;;7.57;1.00;;;;;;;8.29;100.00;100401.97;4983746;28;20022;-73
2023/01/12 08:20:01;;;;;;;5.80;1.00;;;;;;;8.21;100.00;100407.06;4953666;28;20034;-72
2023/01/12 08:22:33;;;;;;;5.93;0.70;;;;;;;8.24;100.00;100391.25;4963101;28;20761;-73
2023/01/12 08:25:22;;;;;;;5.95;0.85;;;;;;;8.26;100.00;100401.44;4965808;28;20101;-71
2023/01/12 08:27:51;;;;;;;8.32;0.80;;;;;;;8.25;100.00;100420.47;4982402;28;20034;-71
2023/01/12 08:30:20;;;;;;;8.35;1.95;;;;;;;8.29;100.00;100408.91;4975801;28;20510;-72
2023/01/12 08:32:46;;;;;;;8.43;1.00;;;;;;;8.33;100.00;100408.44;4966889;28;20138;-73
2023/01/12 08:35:15;;;;;;;8.82;0.82;;;;;;;8.34;100.00;100402.34;4966939;28;20407;-73
2023/01/12 08:37:41;;;;;;;3.53;0.50;;;;;;;8.34;100.00;100423.00;4957626;28;20129;-72
2023/01/12 08:40:08;;;;;;;7.25;1.92;;;;;;;8.38;100.00;100401.06;4949032;28;20389;-73
2023/01/12 08:42:33;;;;;;;8.40;1.08;;;;;;;8.37;100.00;100404.59;4960533;28;20032;-73
2023/01/12 08:44:59;;;;;;;4.95;0.80;;;;;;;8.36;100.00;100410.75;4952794;28;20101;-73
2023/01/12 08:47:27;;;;;;;5.30;1.00;;;;;;;8.35;100.00;100408.31;4967279;28;20054;-73
2023/01/12 08:49:54;;;;;;;3.55;0.75;;;;;;;8.37;100.00;100404.59;4966550;28;20169;-73
2023/01/12 08:52:20;;;;;;;2.60;0.70;;;;;;;8.43;100.00;100417.91;4968527;28;20034;-73
2023/01/12 08:54:46;;;;;;;15.35;2.35;;;;;;;8.44;100.00;100398.84;4969373;28;20053;-73
2023/01/12 08:57:12;;;;;;;6.53;0.60;;;;;;;8.35;100.00;100411.69;4962896;28;20093;-73
2023/01/12 08:59:38;;;;;;;9.07;0.98;;;;;;;8.47;100.00;100416.63;4961860;28;20093;-72
2023/01/12 09:02:03;;;;;;;6.28;1.00;;;;;;;8.50;100.00;100416.34;4933553;28;20019;-73
2023/01/12 09:04:29;;;;;;;9.75;1.00;;;;;;;8.47;100.00;100414.06;4948643;28;20118;-73
2023/01/12 09:06:55;;;;;;;10.68;1.52;;;;;;;8.49;100.00;100410.34;4946478;28;20405;-71
2023/01/12 09:09:21;;;;;;;3.83;0.88;;;;;;;8.47;100.00;100411.47;4959534;28;20035;-72
2023/01/12 09:11:48;;;;;;;9.20;0.95;;;;;;;8.49;100.00;100406.97;4949171;28;20034;-73
2023/01/12 09:14:15;;;;;;;6.00;0.90;;;;;;;8.55;100.00;100421.84;4959861;28;20126;-73
2023/01/12 09:16:41;;;;;;;12.30;0.90;;;;;;;8.52;100.00;100410.06;4946808;28;20102;-72
2023/01/12 09:19:07;;;;;;;6.95;0.63;;;;;;;8.59;100.00;100418.03;4948994;28;20045;-71
2023/01/12 09:21:37;;;;;;;12.18;1.00;;;;;;;8.58;100.00;100414.59;4948566;28;20043;-72
2023/01/12 09:24:03;;;;;;;5.45;0.98;;;;;;;8.60;100.00;100416.25;4963778;28;20569;-72
2023/01/12 09:26:31;;;;;;;4.40;0.70;;;;;;;8.62;100.00;100412.53;4957618;28;20658;-72
2023/01/12 09:29:01;;;;;;;5.18;0.75;;;;;;;8.65;100.00;100416.59;4946206;28;20498;-73
2023/01/12 09:31:30;;;;;;;6.40;0.90;;;;;;;8.64;100.00;100436.44;4977149;28;20051;-72
2023/01/12 09:33:56;;;;;;;4.18;0.70;;;;;;;8.68;100.00;100424.03;4954484;28;20035;-72
2023/01/12 09:36:24;;;;;;;6.47;0.93;;;;;;;8.70;100.00;100438.44;4973261;28;20039;-72
2023/01/12 09:38:50;;;;;;;8.85;1.00;;;;;;;8.69;100.00;100433.44;4961827;28;20039;-71
2023/01/12 09:41:16;;;;;;;8.35;1.00;;;;;;;8.75;100.00;100446.53;4959304;28;20392;-72
2023/01/12 09:49:17;;;;;;;4.68;1.00;;;;;;;8.89;100.00;100446.94;4965656;28;20410;-73
2023/01/12 09:51:56;;;;;;;6.38;0.88;;;;;;;8.86;100.00;100447.25;4956805;28;20051;-72
2023/01/12 09:54:22;;;;;;;6.30;1.17;;;;;;;8.90;100.00;100457.13;4960946;28;20027;-72
2023/01/12 09:57:12;;;;;;;7.82;1.30;;;;;;;8.97;100.00;100478.03;4955580;28;20525;-73
2023/01/12 10:00:02;;;;;;;3.22;0.95;;;;;;;9.06;100.00;100478.88;4958063;28;20057;-72
2023/01/12 10:02:40;;;;;;;12.18;0.77;;;;;;;9.06;100.00;100482.28;4958717;28;20474;-73
2023/01/12 10:05:16;;;;;;;6.93;0.90;;;;;;;9.02;100.00;100491.28;4952288;28;20031;-73
2023/01/12 10:07:42;;;;;;;5.63;0.80;;;;;;;8.99;100.00;100481.28;4979473;28;20034;-73
2023/01/12 10:10:13;;;;;;;8.73;0.90;;;;;;;9.02;100.00;100480.94;4977370;28;20049;-73
2023/01/12 10:12:46;;;;;;;8.45;1.20;;;;;;;9.01;100.00;100486.28;4946072;28;20386;-73
2023/01/12 10:15:14;;;;;;;9.13;1.02;;;;;;;9.02;100.00;100469.81;4957826;28;20094;-73
2023/01/12 10:17:53;;;;;;;5.40;1.25;;;;;;;9.06;100.00;100486.63;4950480;28;20533;-72
2023/01/12 10:20:26;;;;;;;3.67;0.68;;;;;;;9.08;100.00;100464.84;4949692;28;20410;-73
2023/01/12 10:23:13;;;;;;;3.30;0.80;;;;;;;9.05;100.00;100472.88;4945045;28;20031;-72
2023/01/12 10:25:48;;;;;;;4.80;0.60;;;;;;;9.07;100.00;100470.16;4958029;28;20043;-73
2023/01/12 10:28:21;;;;;;;5.70;0.60;;;;;;;9.08;100.00;100474.34;4958261;28;20063;-73
2023/01/12 10:30:47;;;;;;;5.43;1.85;;;;;;;9.16;100.00;100464.88;4966561;28;20043;-72
2023/01/12 10:33:19;;;;;;;6.90;0.70;;;;;;;9.07;100.00;100470.97;4957545;28;20520;-73
2023/01/12 10:35:53;;;;;;;4.90;1.00;;;;;;;9.21;100.00;100479.94;4929925;28;20043;-73
2023/01/12 10:38:25;;;;;;;3.00;0.75;;;;;;;9.21;100.00;100476.53;4957107;28;20031;-72
2023/01/12 10:41:25;;;;;;;6.38;0.88;;;;;;;9.24;100.00;100471.03;4943435;28;20077;-73
2023/01/12 10:43:53;;;;;;;4.13;0.90;;;;;;;9.19;100.00;100475.88;4944544;28;20529;-73
2023/01/12 10:46:21;;;;;;;7.38;1.00;;;;;;;9.28;100.00;100462.00;4965006;28;20138;-73
2023/01/12 10:48:51;;;;;;;8.32;0.90;;;;;;;9.23;100.00;100464.22;4947403;28;20057;-73
2023/01/12 10:51:26;;;;;;;7.43;0.70;;;;;;;9.28;100.00;100480.13;4953806;28;20187;-73
2023/01/12 10:54:01;;;;;;;8.85;1.10;;;;;;;9.23;100.00;100472.00;4973968;28;20149;-73
2023/01/12 10:57:00;;;;;;;2.63;0.65;;;;;;;9.25;100.00;100481.25;4951608;28;20086;-72
2023/01/12 10:59:32;;;;;;;7.38;1.60;;;;;;;9.25;100.00;100483.84;4956623;28;20463;-75
2023/01/12 11:01:57;;;;;;;6.88;1.10;;;;;;;9.25;100.00;100467.47;4961525;28;20090;-71
2023/01/12 11:04:27;;;;;;;6.55;0.98;;;;;;;9.33;100.00;100470.13;4939887;28;20126;-73
2023/01/12 11:07:18;;;;;;;7.88;1.33;;;;;;;9.25;100.00;100489.00;4963049;28;20386;-70
2023/01/12 11:09:45;;;;;;;4.50;0.90;;;;;;;9.24;100.00;100483.97;4963348;28;20031;-73
2023/01/12 11:12:31;;;;;;;5.80;1.08;;;;;;;9.33;100.00;100490.81;4964156;28;20086;-74
2023/01/12 11:15:10;;;;;;;9.65;1.05;;;;;;;9.35;100.00;100481.91;4975204;28;20042;-75
2023/01/12 11:18:11;;;;;;;5.30;0.68;;;;;;;9.34;100.00;100474.31;4958048;28;20512;-74
2023/01/12 11:20:46;;;;;;;3.30;0.90;;;;;;;9.30;100.00;100481.56;4942466;28;20043;-75
2023/01/12 11:23:30;;;;;;;6.45;1.27;;;;;;;9.31;100.00;100492.75;4963415;28;20030;-74
2023/01/12 11:26:00;;;;;;;5.53;0.88;;;;;;;9.30;100.00;100485.94;4959069;28;20397;-75
2023/01/12 11:28:37;;;;;;;3.72;0.82;;;;;;;9.32;100.00;100476.25;4973696;28;20036;-75
2023/01/12 11:31:05;;;;;;;15.20;1.13;;;;;;;9.27;100.00;100481.91;4943182;28;20508;-74
2023/01/12 11:33:40;;;;;;;8.40;0.95;;;;;;;9.30;100.00;100475.59;4940453;28;20517;-74
2023/01/12 11:36:10;;;;;;;8.50;1.15;;;;;;;9.38;100.00;100473.06;4943385;28;20119;-75
2023/01/12 11:38:49;;;;;;;6.07;1.00;;;;;;;9.36;100.00;100474.97;4960531;28;20478;-73
2023/01/12 11:41:33;;;;;;;5.25;1.10;;;;;;;9.35;100.00;100481.91;4969574;28;20035;-75
2023/01/12 11:44:22;;;;;;;4.88;0.65;;;;;;;9.39;100.00;100485.00;4958270;28;20401;-74
2023/01/12 11:46:58;;;;;;;9.43;1.30;;;;;;;9.38;100.00;100473.06;4946500;28;20147;-75
2023/01/12 11:49:42;;;;;;;7.88;1.88;;;;;;;9.36;100.00;100482.72;4975452;28;20101;-74
2023/01/12 11:52:12;;;;;;;3.67;1.15;;;;;;;9.40;100.00;100478.88;4983468;28;20101;-75
2023/01/12 11:54:38;;;;;;;4.03;0.90;;;;;;;9.34;100.00;100463.97;4989287;28;20158;-75
2023/01/12 11:57:25;;;;;;;9.30;0.98;;;;;;;9.38;100.00;100465.28;4971451;28;20090;-75
2023/01/12 12:00:01;;;;;;;4.75;0.93;;;;;;;9.38;100.00;100475.66;4965208;28;20126;-74
2023/01/12 12:02:35;;;;;;;6.72;1.45;;;;;;;9.30;100.00;100460.06;4960945;28;20066;-74
2023/01/12 12:05:39;;;;;;;7.45;1.15;;;;;;;9.38;100.00;100454.94;4971202;28;20039;-75